sensor_id;sensor_type;location;lat;lon;timestamp;temperature;humidity
67054;SHT31;53960;51.826;5.850;2023-04-12T00:00:06;10.52;79.69
67054;SHT31;53960;51.826;5.850;2023-04-12T00:02:35;10.55;79.82
67054;SHT31;53960;51.826;5.850;2023-04-12T00:05:01;10.39;80.57
67054;SHT31;53960;51.826;5.850;2023-04-12T00:07:27;10.35;80.84
67054;SHT31;53960;51.826;5.850;2023-04-12T00:09:54;10.35;81.34
67054;SHT31;53960;51.826;5.850;2023-04-12T00:12:20;10.32;81.58
67054;SHT31;53960;51.826;5.850;2023-04-12T00:14:45;10.42;81.33
67054;SHT31;53960;51.826;5.850;2023-04-12T00:17:11;10.16;82.13
67054;SHT31;53960;51.826;5.850;2023-04-12T00:19:37;9.97;83.07
67054;SHT31;53960;51.826;5.850;2023-04-12T00:22:07;10.01;83.30
67054;SHT31;53960;51.826;5.850;2023-04-12T00:24:32;10.02;83.58
67054;SHT31;53960;51.826;5.850;2023-04-12T00:26:58;9.98;83.76
67054;SHT31;53960;51.826;5.850;2023-04-12T00:29:26;9.95;83.91
67054;SHT31;53960;51.826;5.850;2023-04-12T00:31:51;9.97;83.82
67054;SHT31;53960;51.826;5.850;2023-04-12T00:34:17;9.94;84.05
67054;SHT31;53960;51.826;5.850;2023-04-12T00:36:42;9.88;83.81
67054;SHT31;53960;51.826;5.850;2023-04-12T00:39:07;9.87;84.02
67054;SHT31;53960;51.826;5.850;2023-04-12T00:41:36;9.77;84.33
67054;SHT31;53960;51.826;5.850;2023-04-12T00:44:01;9.77;84.58
67054;SHT31;53960;51.826;5.850;2023-04-12T00:46:26;9.74;84.80
67054;SHT31;53960;51.826;5.850;2023-04-12T00:48:53;9.66;85.04
67054;SHT31;53960;51.826;5.850;2023-04-12T00:51:21;9.75;85.07
67054;SHT31;53960;51.826;5.850;2023-04-12T00:53:47;9.64;85.12
67054;SHT31;53960;51.826;5.850;2023-04-12T00:56:12;9.58;85.60
67054;SHT31;53960;51.826;5.850;2023-04-12T00:58:38;9.60;85.48
67054;SHT31;53960;51.826;5.850;2023-04-12T01:01:03;9.64;85.62
67054;SHT31;53960;51.826;5.850;2023-04-12T01:03:29;9.64;85.67
67054;SHT31;53960;51.826;5.850;2023-04-12T01:06:06;9.69;84.78
67054;SHT31;53960;51.826;5.850;2023-04-12T01:09:02;9.64;85.24
67054;SHT31;53960;51.826;5.850;2023-04-12T01:11:41;9.58;85.78
67054;SHT31;53960;51.826;5.850;2023-04-12T01:14:16;9.51;86.12
67054;SHT31;53960;51.826;5.850;2023-04-12T01:16:54;9.48;85.92
67054;SHT31;53960;51.826;5.850;2023-04-12T01:22:15;9.35;86.48
67054;SHT31;53960;51.826;5.850;2023-04-12T01:27:38;9.23;87.60
67054;SHT31;53960;51.826;5.850;2023-04-12T01:30:12;9.33;87.34
67054;SHT31;53960;51.826;5.850;2023-04-12T01:32:39;9.37;87.26
67054;SHT31;53960;51.826;5.850;2023-04-12T01:35:09;9.35;87.39
67054;SHT31;53960;51.826;5.850;2023-04-12T01:37:35;9.30;87.72
67054;SHT31;53960;51.826;5.850;2023-04-12T01:40:01;9.40;87.41
67054;SHT31;53960;51.826;5.850;2023-04-12T01:42:29;9.50;86.86
67054;SHT31;53960;51.826;5.850;2023-04-12T01:44:55;9.40;87.44
67054;SHT31;53960;51.826;5.850;2023-04-12T01:47:21;9.43;86.98
67054;SHT31;53960;51.826;5.850;2023-04-12T01:49:55;9.30;87.52
67054;SHT31;53960;51.826;5.850;2023-04-12T01:52:25;9.32;87.34
67054;SHT31;53960;51.826;5.850;2023-04-12T01:54:56;9.39;87.18
67054;SHT31;53960;51.826;5.850;2023-04-12T01:57:24;9.33;87.25
67054;SHT31;53960;51.826;5.850;2023-04-12T01:59:50;9.32;87.05
67054;SHT31;53960;51.826;5.850;2023-04-12T02:02:18;9.33;87.25
67054;SHT31;53960;51.826;5.850;2023-04-12T02:04:44;9.30;87.48
67054;SHT31;53960;51.826;5.850;2023-04-12T02:07:10;9.26;87.72
67054;SHT31;53960;51.826;5.850;2023-04-12T02:09:37;9.22;87.69
67054;SHT31;53960;51.826;5.850;2023-04-12T02:12:04;9.23;87.72
67054;SHT31;53960;51.826;5.850;2023-04-12T02:14:29;9.26;87.06
67054;SHT31;53960;51.826;5.850;2023-04-12T02:16:56;9.19;87.51
67054;SHT31;53960;51.826;5.850;2023-04-12T02:19:22;9.22;87.45
67054;SHT31;53960;51.826;5.850;2023-04-12T02:21:49;9.25;87.24
67054;SHT31;53960;51.826;5.850;2023-04-12T02:24:14;9.18;87.49
67054;SHT31;53960;51.826;5.850;2023-04-12T02:26:40;9.19;87.10
67054;SHT31;53960;51.826;5.850;2023-04-12T02:29:06;9.15;87.19
67054;SHT31;53960;51.826;5.850;2023-04-12T02:31:33;9.20;87.01
67054;SHT31;53960;51.826;5.850;2023-04-12T02:33:59;9.19;87.23
67054;SHT31;53960;51.826;5.850;2023-04-12T02:36:25;9.06;87.40
67054;SHT31;53960;51.826;5.850;2023-04-12T02:38:50;9.05;87.34
67054;SHT31;53960;51.826;5.850;2023-04-12T02:41:19;9.11;86.97
67054;SHT31;53960;51.826;5.850;2023-04-12T02:43:45;9.19;87.10
67054;SHT31;53960;51.826;5.850;2023-04-12T02:46:29;9.20;86.91
67054;SHT31;53960;51.826;5.850;2023-04-12T02:48:54;9.25;86.65
67054;SHT31;53960;51.826;5.850;2023-04-12T02:51:19;9.25;86.49
67054;SHT31;53960;51.826;5.850;2023-04-12T02:53:45;9.25;86.38
67054;SHT31;53960;51.826;5.850;2023-04-12T02:56:10;9.25;86.32
67054;SHT31;53960;51.826;5.850;2023-04-12T02:58:37;9.20;86.59
67054;SHT31;53960;51.826;5.850;2023-04-12T03:01:02;9.20;86.10
67054;SHT31;53960;51.826;5.850;2023-04-12T03:03:31;9.20;86.10
67054;SHT31;53960;51.826;5.850;2023-04-12T03:05:56;9.29;86.10
67054;SHT31;53960;51.826;5.850;2023-04-12T03:08:22;9.22;86.17
67054;SHT31;53960;51.826;5.850;2023-04-12T03:10:48;9.26;85.83
67054;SHT31;53960;51.826;5.850;2023-04-12T03:13:13;9.27;86.15
67054;SHT31;53960;51.826;5.850;2023-04-12T03:15:39;9.33;85.80
67054;SHT31;53960;51.826;5.850;2023-04-12T03:18:04;9.23;85.99
67054;SHT31;53960;51.826;5.850;2023-04-12T03:20:30;9.19;86.21
67054;SHT31;53960;51.826;5.850;2023-04-12T03:22:55;9.08;86.36
67054;SHT31;53960;51.826;5.850;2023-04-12T03:25:20;9.06;86.61
67054;SHT31;53960;51.826;5.850;2023-04-12T03:27:46;9.02;86.82
67054;SHT31;53960;51.826;5.850;2023-04-12T03:30:11;9.02;86.99
67054;SHT31;53960;51.826;5.850;2023-04-12T03:32:40;9.09;86.92
67054;SHT31;53960;51.826;5.850;2023-04-12T03:35:07;9.23;86.40
67054;SHT31;53960;51.826;5.850;2023-04-12T03:37:33;9.16;86.39
67054;SHT31;53960;51.826;5.850;2023-04-12T03:39:58;9.16;86.52
67054;SHT31;53960;51.826;5.850;2023-04-12T03:42:24;9.16;86.63
67054;SHT31;53960;51.826;5.850;2023-04-12T03:44:51;8.99;87.47
67054;SHT31;53960;51.826;5.850;2023-04-12T03:47:17;9.12;87.44
67054;SHT31;53960;51.826;5.850;2023-04-12T03:49:42;9.09;87.39
67054;SHT31;53960;51.826;5.850;2023-04-12T03:52:08;9.02;87.95
67054;SHT31;53960;51.826;5.850;2023-04-12T03:54:33;8.82;88.25
67054;SHT31;53960;51.826;5.850;2023-04-12T03:56:59;8.86;88.48
67054;SHT31;53960;51.826;5.850;2023-04-12T03:59:25;8.85;88.55
67054;SHT31;53960;51.826;5.850;2023-04-12T04:01:51;8.78;89.08
67054;SHT31;53960;51.826;5.850;2023-04-12T04:04:16;8.82;89.07
67054;SHT31;53960;51.826;5.850;2023-04-12T04:06:42;8.91;88.90
67054;SHT31;53960;51.826;5.850;2023-04-12T04:09:07;8.88;88.94
67054;SHT31;53960;51.826;5.850;2023-04-12T04:11:34;8.95;88.80
67054;SHT31;53960;51.826;5.850;2023-04-12T04:13:59;8.84;89.01
67054;SHT31;53960;51.826;5.850;2023-04-12T04:16:25;8.68;89.79
67054;SHT31;53960;51.826;5.850;2023-04-12T04:18:50;8.74;89.97
67054;SHT31;53960;51.826;5.850;2023-04-12T04:21:16;8.75;89.95
67054;SHT31;53960;51.826;5.850;2023-04-12T04:23:41;8.74;90.20
67054;SHT31;53960;51.826;5.850;2023-04-12T04:26:11;8.85;89.96
67054;SHT31;53960;51.826;5.850;2023-04-12T04:28:39;8.88;89.70
67054;SHT31;53960;51.826;5.850;2023-04-12T04:31:06;8.91;89.52
67054;SHT31;53960;51.826;5.850;2023-04-12T04:33:34;8.79;89.58
67054;SHT31;53960;51.826;5.850;2023-04-12T04:36:00;8.81;89.72
67054;SHT31;53960;51.826;5.850;2023-04-12T04:38:26;8.86;89.56
67054;SHT31;53960;51.826;5.850;2023-04-12T04:40:52;8.93;89.38
67054;SHT31;53960;51.826;5.850;2023-04-12T04:43:18;8.89;89.34
67054;SHT31;53960;51.826;5.850;2023-04-12T04:45:45;8.82;89.74
67054;SHT31;53960;51.826;5.850;2023-04-12T04:48:13;8.74;89.80
67054;SHT31;53960;51.826;5.850;2023-04-12T04:50:39;8.71;90.04
67054;SHT31;53960;51.826;5.850;2023-04-12T04:53:04;8.75;90.25
67054;SHT31;53960;51.826;5.850;2023-04-12T04:55:29;8.69;90.21
67054;SHT31;53960;51.826;5.850;2023-04-12T04:57:55;8.71;90.26
67054;SHT31;53960;51.826;5.850;2023-04-12T05:00:22;8.61;90.57
67054;SHT31;53960;51.826;5.850;2023-04-12T05:02:49;8.64;90.56
67054;SHT31;53960;51.826;5.850;2023-04-12T05:05:16;8.60;90.71
67054;SHT31;53960;51.826;5.850;2023-04-12T05:07:42;8.63;90.80
67054;SHT31;53960;51.826;5.850;2023-04-12T05:10:08;8.64;90.77
67054;SHT31;53960;51.826;5.850;2023-04-12T05:12:33;8.68;90.61
67054;SHT31;53960;51.826;5.850;2023-04-12T05:15:00;8.65;90.95
67054;SHT31;53960;51.826;5.850;2023-04-12T05:17:26;8.71;90.88
67054;SHT31;53960;51.826;5.850;2023-04-12T05:19:51;8.71;90.60
67054;SHT31;53960;51.826;5.850;2023-04-12T05:22:17;8.64;90.75
67054;SHT31;53960;51.826;5.850;2023-04-12T05:24:45;8.64;91.11
67054;SHT31;53960;51.826;5.850;2023-04-12T05:27:10;8.65;91.10
67054;SHT31;53960;51.826;5.850;2023-04-12T05:29:35;8.69;91.13
67054;SHT31;53960;51.826;5.850;2023-04-12T05:32:01;8.78;90.80
67054;SHT31;53960;51.826;5.850;2023-04-12T05:34:26;8.74;91.01
67054;SHT31;53960;51.826;5.850;2023-04-12T05:36:51;8.82;90.95
67054;SHT31;53960;51.826;5.850;2023-04-12T05:39:17;8.85;90.91
67054;SHT31;53960;51.826;5.850;2023-04-12T05:41:42;8.92;90.64
67054;SHT31;53960;51.826;5.850;2023-04-12T05:44:10;8.88;90.86
67054;SHT31;53960;51.826;5.850;2023-04-12T05:46:36;8.88;91.00
67054;SHT31;53960;51.826;5.850;2023-04-12T05:49:02;8.92;90.82
67054;SHT31;53960;51.826;5.850;2023-04-12T05:51:27;9.04;90.49
67054;SHT31;53960;51.826;5.850;2023-04-12T05:53:52;9.05;90.08
67054;SHT31;53960;51.826;5.850;2023-04-12T05:56:18;9.09;89.81
67054;SHT31;53960;51.826;5.850;2023-04-12T05:58:43;8.96;90.43
67054;SHT31;53960;51.826;5.850;2023-04-12T06:01:08;8.99;90.26
67054;SHT31;53960;51.826;5.850;2023-04-12T06:03:34;9.06;90.32
67054;SHT31;53960;51.826;5.850;2023-04-12T06:06:00;8.95;90.64
67054;SHT31;53960;51.826;5.850;2023-04-12T06:08:26;8.96;90.72
67054;SHT31;53960;51.826;5.850;2023-04-12T06:10:53;8.86;91.04
67054;SHT31;53960;51.826;5.850;2023-04-12T06:13:18;8.79;91.11
67054;SHT31;53960;51.826;5.850;2023-04-12T06:15:44;8.86;91.19
67054;SHT31;53960;51.826;5.850;2023-04-12T06:18:09;8.82;91.29
67054;SHT31;53960;51.826;5.850;2023-04-12T06:20:38;8.92;91.28
67054;SHT31;53960;51.826;5.850;2023-04-12T06:23:04;8.93;91.39
67054;SHT31;53960;51.826;5.850;2023-04-12T06:25:30;8.86;91.54
67054;SHT31;53960;51.826;5.850;2023-04-12T06:27:56;8.88;91.62
67054;SHT31;53960;51.826;5.850;2023-04-12T06:30:21;8.91;91.66
67054;SHT31;53960;51.826;5.850;2023-04-12T06:32:46;8.93;91.62
67054;SHT31;53960;51.826;5.850;2023-04-12T06:35:14;8.89;91.91
67054;SHT31;53960;51.826;5.850;2023-04-12T06:37:39;8.99;91.76
67054;SHT31;53960;51.826;5.850;2023-04-12T06:40:05;8.99;91.62
67054;SHT31;53960;51.826;5.850;2023-04-12T06:42:31;9.01;91.69
67054;SHT31;53960;51.826;5.850;2023-04-12T06:44:56;9.04;91.68
67054;SHT31;53960;51.826;5.850;2023-04-12T06:47:23;9.06;91.60
67054;SHT31;53960;51.826;5.850;2023-04-12T06:49:49;9.05;91.82
67054;SHT31;53960;51.826;5.850;2023-04-12T06:52:17;9.05;91.72
67054;SHT31;53960;51.826;5.850;2023-04-12T06:54:42;9.16;91.60
67054;SHT31;53960;51.826;5.850;2023-04-12T06:57:11;9.20;91.48
67054;SHT31;53960;51.826;5.850;2023-04-12T06:59:36;9.25;91.11
67054;SHT31;53960;51.826;5.850;2023-04-12T07:02:01;9.25;91.19
67054;SHT31;53960;51.826;5.850;2023-04-12T07:04:27;9.27;91.18
67054;SHT31;53960;51.826;5.850;2023-04-12T07:06:52;9.37;91.09
67054;SHT31;53960;51.826;5.850;2023-04-12T07:09:17;9.42;90.92
67054;SHT31;53960;51.826;5.850;2023-04-12T07:11:43;9.47;90.77
67054;SHT31;53960;51.826;5.850;2023-04-12T07:14:09;9.47;90.85
67054;SHT31;53960;51.826;5.850;2023-04-12T07:16:34;9.51;90.65
67054;SHT31;53960;51.826;5.850;2023-04-12T07:19:00;9.44;90.95
67054;SHT31;53960;51.826;5.850;2023-04-12T07:21:25;9.37;91.41
67054;SHT31;53960;51.826;5.850;2023-04-12T07:23:51;9.39;91.41
67054;SHT31;53960;51.826;5.850;2023-04-12T07:26:17;9.44;91.45
67054;SHT31;53960;51.826;5.850;2023-04-12T07:28:43;9.48;91.44
67054;SHT31;53960;51.826;5.850;2023-04-12T07:31:08;9.53;91.31
67054;SHT31;53960;51.826;5.850;2023-04-12T07:33:34;9.60;91.20
67054;SHT31;53960;51.826;5.850;2023-04-12T07:36:01;9.63;91.07
67054;SHT31;53960;51.826;5.850;2023-04-12T07:38:27;9.64;91.09
67054;SHT31;53960;51.826;5.850;2023-04-12T07:40:53;9.70;90.89
67054;SHT31;53960;51.826;5.850;2023-04-12T07:43:19;9.71;90.93
67054;SHT31;53960;51.826;5.850;2023-04-12T07:45:45;9.71;90.94
67054;SHT31;53960;51.826;5.850;2023-04-12T07:48:11;9.81;90.79
67054;SHT31;53960;51.826;5.850;2023-04-12T07:50:36;9.88;90.59
67054;SHT31;53960;51.826;5.850;2023-04-12T07:53:22;9.88;90.57
67054;SHT31;53960;51.826;5.850;2023-04-12T07:55:48;9.94;90.41
67054;SHT31;53960;51.826;5.850;2023-04-12T07:58:15;9.98;90.31
67054;SHT31;53960;51.826;5.850;2023-04-12T08:00:41;10.08;89.97
67054;SHT31;53960;51.826;5.850;2023-04-12T08:03:07;10.14;89.68
67054;SHT31;53960;51.826;5.850;2023-04-12T08:05:33;10.19;89.89
67054;SHT31;53960;51.826;5.850;2023-04-12T08:07:58;10.22;89.89
67054;SHT31;53960;51.826;5.850;2023-04-12T08:10:24;10.22;89.66
67054;SHT31;53960;51.826;5.850;2023-04-12T08:12:49;10.28;89.54
67054;SHT31;53960;51.826;5.850;2023-04-12T08:15:14;10.24;88.64
67054;SHT31;53960;51.826;5.850;2023-04-12T08:17:40;10.21;88.79
67054;SHT31;53960;51.826;5.850;2023-04-12T08:20:08;10.22;88.96
67054;SHT31;53960;51.826;5.850;2023-04-12T08:22:33;10.28;89.07
67054;SHT31;53960;51.826;5.850;2023-04-12T08:24:59;10.34;88.85
67054;SHT31;53960;51.826;5.850;2023-04-12T08:27:25;10.38;88.19
67054;SHT31;53960;51.826;5.850;2023-04-12T08:29:51;10.43;87.88
67054;SHT31;53960;51.826;5.850;2023-04-12T08:32:16;10.45;88.05
67054;SHT31;53960;51.826;5.850;2023-04-12T08:34:41;10.45;88.34
67054;SHT31;53960;51.826;5.850;2023-04-12T08:37:07;10.52;87.84
67054;SHT31;53960;51.826;5.850;2023-04-12T08:39:32;10.59;87.60
67054;SHT31;53960;51.826;5.850;2023-04-12T08:41:59;10.62;87.64
67054;SHT31;53960;51.826;5.850;2023-04-12T08:44:35;10.64;87.54
67054;SHT31;53960;51.826;5.850;2023-04-12T08:47:05;10.74;87.40
67054;SHT31;53960;51.826;5.850;2023-04-12T08:49:32;10.81;86.36
67054;SHT31;53960;51.826;5.850;2023-04-12T08:52:06;10.81;86.50
67054;SHT31;53960;51.826;5.850;2023-04-12T08:54:33;10.84;86.56
67054;SHT31;53960;51.826;5.850;2023-04-12T08:57:02;10.81;86.55
67054;SHT31;53960;51.826;5.850;2023-04-12T08:59:30;10.79;86.78
67054;SHT31;53960;51.826;5.850;2023-04-12T09:01:56;10.72;87.29
67054;SHT31;53960;51.826;5.850;2023-04-12T09:04:22;10.76;87.06
67054;SHT31;53960;51.826;5.850;2023-04-12T09:06:47;10.76;86.82
67054;SHT31;53960;51.826;5.850;2023-04-12T09:09:13;10.77;87.35
67054;SHT31;53960;51.826;5.850;2023-04-12T09:11:38;10.77;87.22
67054;SHT31;53960;51.826;5.850;2023-04-12T09:14:19;10.79;87.28
67054;SHT31;53960;51.826;5.850;2023-04-12T09:16:45;10.87;86.92
67054;SHT31;53960;51.826;5.850;2023-04-12T09:19:10;11.10;86.05
67054;SHT31;53960;51.826;5.850;2023-04-12T09:21:36;11.23;85.46
67054;SHT31;53960;51.826;5.850;2023-04-12T09:24:15;11.39;86.20
67054;SHT31;53960;51.826;5.850;2023-04-12T09:26:40;11.42;85.14
67054;SHT31;53960;51.826;5.850;2023-04-12T09:29:20;11.51;85.10
67054;SHT31;53960;51.826;5.850;2023-04-12T09:32:03;11.58;84.99
67054;SHT31;53960;51.826;5.850;2023-04-12T09:34:30;11.62;83.76
67054;SHT31;53960;51.826;5.850;2023-04-12T09:36:56;11.72;83.72
67054;SHT31;53960;51.826;5.850;2023-04-12T09:39:29;11.79;83.80
67054;SHT31;53960;51.826;5.850;2023-04-12T09:42:12;11.86;82.61
67054;SHT31;53960;51.826;5.850;2023-04-12T09:44:39;11.92;82.53
67054;SHT31;53960;51.826;5.850;2023-04-12T09:47:05;11.97;83.01
67054;SHT31;53960;51.826;5.850;2023-04-12T09:49:41;12.00;83.56
67054;SHT31;53960;51.826;5.850;2023-04-12T09:52:08;12.06;82.56
67054;SHT31;53960;51.826;5.850;2023-04-12T09:57:07;12.12;82.37
67054;SHT31;53960;51.826;5.850;2023-04-12T09:59:37;12.20;82.08
67054;SHT31;53960;51.826;5.850;2023-04-12T10:02:12;12.23;80.58
67054;SHT31;53960;51.826;5.850;2023-04-12T10:04:38;12.34;80.65
67054;SHT31;53960;51.826;5.850;2023-04-12T10:07:05;12.37;79.86
67054;SHT31;53960;51.826;5.850;2023-04-12T10:09:31;12.36;79.45
67054;SHT31;53960;51.826;5.850;2023-04-12T10:11:58;12.33;78.33
67054;SHT31;53960;51.826;5.850;2023-04-12T10:14:26;12.31;80.88
67054;SHT31;53960;51.826;5.850;2023-04-12T10:16:56;12.38;80.18
67054;SHT31;53960;51.826;5.850;2023-04-12T10:19:22;12.37;79.11
67054;SHT31;53960;51.826;5.850;2023-04-12T10:21:49;12.37;79.12
67054;SHT31;53960;51.826;5.850;2023-04-12T10:24:15;12.41;80.22
67054;SHT31;53960;51.826;5.850;2023-04-12T10:26:41;12.47;78.31
67054;SHT31;53960;51.826;5.850;2023-04-12T10:31:58;12.52;77.68
67054;SHT31;53960;51.826;5.850;2023-04-12T10:34:42;12.55;78.58
67054;SHT31;53960;51.826;5.850;2023-04-12T10:37:07;12.68;77.13
67054;SHT31;53960;51.826;5.850;2023-04-12T10:39:42;12.72;77.36
67054;SHT31;53960;51.826;5.850;2023-04-12T10:42:26;12.74;77.10
67054;SHT31;53960;51.826;5.850;2023-04-12T10:44:54;12.81;77.81
67054;SHT31;53960;51.826;5.850;2023-04-12T10:50:24;13.08;74.90
67054;SHT31;53960;51.826;5.850;2023-04-12T10:55:43;13.09;73.03
67054;SHT31;53960;51.826;5.850;2023-04-12T11:03:23;13.16;73.09
67054;SHT31;53960;51.826;5.850;2023-04-12T11:06:04;13.10;70.99
67054;SHT31;53960;51.826;5.850;2023-04-12T11:08:31;13.03;71.89
67054;SHT31;53960;51.826;5.850;2023-04-12T11:11:04;13.01;70.67
67054;SHT31;53960;51.826;5.850;2023-04-12T11:13:34;12.98;71.17
67054;SHT31;53960;51.826;5.850;2023-04-12T11:16:02;13.05;72.48
67054;SHT31;53960;51.826;5.850;2023-04-12T11:18:27;13.15;72.25
67054;SHT31;53960;51.826;5.850;2023-04-12T11:20:53;13.22;73.32
67054;SHT31;53960;51.826;5.850;2023-04-12T11:23:18;13.27;72.38
67054;SHT31;53960;51.826;5.850;2023-04-12T11:25:51;13.32;72.11
67054;SHT31;53960;51.826;5.850;2023-04-12T11:28:18;13.30;72.49
67054;SHT31;53960;51.826;5.850;2023-04-12T11:30:51;13.35;73.07
67054;SHT31;53960;51.826;5.850;2023-04-12T11:33:37;13.35;72.17
67054;SHT31;53960;51.826;5.850;2023-04-12T11:36:08;13.32;71.29
67054;SHT31;53960;51.826;5.850;2023-04-12T11:38:35;13.26;71.66
67054;SHT31;53960;51.826;5.850;2023-04-12T11:41:02;13.20;71.37
67054;SHT31;53960;51.826;5.850;2023-04-12T11:43:28;13.16;70.89
67054;SHT31;53960;51.826;5.850;2023-04-12T11:45:58;13.23;71.19
67054;SHT31;53960;51.826;5.850;2023-04-12T11:48:25;13.22;69.31
67054;SHT31;53960;51.826;5.850;2023-04-12T11:50:51;13.15;70.64
67054;SHT31;53960;51.826;5.850;2023-04-12T11:53:16;13.05;70.52
67054;SHT31;53960;51.826;5.850;2023-04-12T11:55:50;12.96;68.87
67054;SHT31;53960;51.826;5.850;2023-04-12T11:58:16;12.89;70.04
67054;SHT31;53960;51.826;5.850;2023-04-12T12:00:43;12.84;70.83
67054;SHT31;53960;51.826;5.850;2023-04-12T12:03:10;12.77;70.41
67054;SHT31;53960;51.826;5.850;2023-04-12T12:05:37;12.78;71.22
67054;SHT31;53960;51.826;5.850;2023-04-12T12:08:03;12.85;72.42
67054;SHT31;53960;51.826;5.850;2023-04-12T12:10:38;12.88;73.71
67054;SHT31;53960;51.826;5.850;2023-04-12T12:13:09;12.85;72.06
67054;SHT31;53960;51.826;5.850;2023-04-12T12:15:35;12.75;71.21
67054;SHT31;53960;51.826;5.850;2023-04-12T12:18:00;12.74;72.84
67054;SHT31;53960;51.826;5.850;2023-04-12T12:20:26;12.71;70.22
67054;SHT31;53960;51.826;5.850;2023-04-12T12:22:52;12.77;72.22
67054;SHT31;53960;51.826;5.850;2023-04-12T12:25:18;12.84;71.76
67054;SHT31;53960;51.826;5.850;2023-04-12T12:27:44;12.88;71.97
67054;SHT31;53960;51.826;5.850;2023-04-12T12:30:17;12.93;71.41
67054;SHT31;53960;51.826;5.850;2023-04-12T12:32:44;13.01;69.89
67054;SHT31;53960;51.826;5.850;2023-04-12T12:35:12;13.08;71.25
67054;SHT31;53960;51.826;5.850;2023-04-12T12:37:48;13.18;68.50
67054;SHT31;53960;51.826;5.850;2023-04-12T12:40:14;13.29;65.99
67054;SHT31;53960;51.826;5.850;2023-04-12T12:42:52;13.19;64.27
67054;SHT31;53960;51.826;5.850;2023-04-12T12:45:21;13.18;61.79
67054;SHT31;53960;51.826;5.850;2023-04-12T12:47:56;13.19;63.39
67054;SHT31;53960;51.826;5.850;2023-04-12T12:50:24;13.19;63.55
67054;SHT31;53960;51.826;5.850;2023-04-12T12:52:50;13.06;63.51
67054;SHT31;53960;51.826;5.850;2023-04-12T12:55:17;12.93;62.77
67054;SHT31;53960;51.826;5.850;2023-04-12T12:57:44;12.85;63.19
67054;SHT31;53960;51.826;5.850;2023-04-12T13:00:11;12.67;63.73
67054;SHT31;53960;51.826;5.850;2023-04-12T13:02:39;12.52;66.30
67054;SHT31;53960;51.826;5.850;2023-04-12T13:05:04;12.38;66.22
67054;SHT31;53960;51.826;5.850;2023-04-12T13:07:30;12.23;67.14
67054;SHT31;53960;51.826;5.850;2023-04-12T13:09:55;12.13;67.72
67054;SHT31;53960;51.826;5.850;2023-04-12T13:12:21;12.07;67.09
67054;SHT31;53960;51.826;5.850;2023-04-12T13:14:46;11.99;67.90
67054;SHT31;53960;51.826;5.850;2023-04-12T13:17:12;11.89;67.80
67054;SHT31;53960;51.826;5.850;2023-04-12T13:19:38;11.85;70.16
67054;SHT31;53960;51.826;5.850;2023-04-12T13:22:04;11.89;69.62
67054;SHT31;53960;51.826;5.850;2023-04-12T13:24:31;11.82;69.83
67054;SHT31;53960;51.826;5.850;2023-04-12T13:26:56;11.78;70.36
67054;SHT31;53960;51.826;5.850;2023-04-12T13:29:22;11.82;71.34
67054;SHT31;53960;51.826;5.850;2023-04-12T13:31:47;11.89;70.05
67054;SHT31;53960;51.826;5.850;2023-04-12T13:34:13;12.02;68.73
67054;SHT31;53960;51.826;5.850;2023-04-12T13:36:38;12.02;69.99
67054;SHT31;53960;51.826;5.850;2023-04-12T13:39:04;12.12;68.33
67054;SHT31;53960;51.826;5.850;2023-04-12T13:41:29;12.16;69.18
67054;SHT31;53960;51.826;5.850;2023-04-12T13:43:57;12.14;66.88
67054;SHT31;53960;51.826;5.850;2023-04-12T13:46:22;12.13;68.76
67054;SHT31;53960;51.826;5.850;2023-04-12T13:48:47;12.07;67.81
67054;SHT31;53960;51.826;5.850;2023-04-12T13:51:13;11.94;66.94
67054;SHT31;53960;51.826;5.850;2023-04-12T13:53:39;11.83;67.19
67054;SHT31;53960;51.826;5.850;2023-04-12T13:56:04;11.78;65.45
67054;SHT31;53960;51.826;5.850;2023-04-12T13:58:30;11.73;66.08
67054;SHT31;53960;51.826;5.850;2023-04-12T14:00:55;11.63;65.35
67054;SHT31;53960;51.826;5.850;2023-04-12T14:03:23;11.52;66.78
67054;SHT31;53960;51.826;5.850;2023-04-12T14:05:48;11.50;68.54
67054;SHT31;53960;51.826;5.850;2023-04-12T14:08:13;11.46;69.22
67054;SHT31;53960;51.826;5.850;2023-04-12T14:10:39;11.41;70.19
67054;SHT31;53960;51.826;5.850;2023-04-12T14:13:04;11.35;71.97
67054;SHT31;53960;51.826;5.850;2023-04-12T14:15:30;11.39;72.50
67054;SHT31;53960;51.826;5.850;2023-04-12T14:17:55;11.45;73.22
67054;SHT31;53960;51.826;5.850;2023-04-12T14:20:20;11.44;72.96
67054;SHT31;53960;51.826;5.850;2023-04-12T14:22:48;11.48;73.75
67054;SHT31;53960;51.826;5.850;2023-04-12T14:25:13;11.44;73.34
67054;SHT31;53960;51.826;5.850;2023-04-12T14:27:38;11.46;71.91
67054;SHT31;53960;51.826;5.850;2023-04-12T14:30:04;11.35;71.62
67054;SHT31;53960;51.826;5.850;2023-04-12T14:32:31;11.36;72.29
67054;SHT31;53960;51.826;5.850;2023-04-12T14:34:56;11.45;73.24
67054;SHT31;53960;51.826;5.850;2023-04-12T14:37:22;11.55;73.77
67054;SHT31;53960;51.826;5.850;2023-04-12T14:39:47;11.68;72.61
67054;SHT31;53960;51.826;5.850;2023-04-12T14:42:13;11.66;71.76
67054;SHT31;53960;51.826;5.850;2023-04-12T14:44:38;11.68;72.01
67054;SHT31;53960;51.826;5.850;2023-04-12T14:47:03;11.63;72.37
67054;SHT31;53960;51.826;5.850;2023-04-12T14:49:29;11.61;74.09
67054;SHT31;53960;51.826;5.850;2023-04-12T14:51:55;11.58;73.62
67054;SHT31;53960;51.826;5.850;2023-04-12T14:54:21;11.61;73.63
67054;SHT31;53960;51.826;5.850;2023-04-12T14:56:46;11.55;72.55
67054;SHT31;53960;51.826;5.850;2023-04-12T14:59:13;11.52;73.01
67054;SHT31;53960;51.826;5.850;2023-04-12T15:01:38;11.48;72.51
67054;SHT31;53960;51.826;5.850;2023-04-12T15:04:04;11.42;72.92
67054;SHT31;53960;51.826;5.850;2023-04-12T15:06:30;11.35;72.69
67054;SHT31;53960;51.826;5.850;2023-04-12T15:09:00;11.27;73.81
67054;SHT31;53960;51.826;5.850;2023-04-12T15:11:25;11.20;73.61
67054;SHT31;53960;51.826;5.850;2023-04-12T15:13:50;11.17;74.11
67054;SHT31;53960;51.826;5.850;2023-04-12T15:16:17;10.93;69.57
67054;SHT31;53960;51.826;5.850;2023-04-12T15:18:42;10.32;71.65
67054;SHT31;53960;51.826;5.850;2023-04-12T15:21:08;9.80;74.55
67054;SHT31;53960;51.826;5.850;2023-04-12T15:23:34;9.47;77.02
67054;SHT31;53960;51.826;5.850;2023-04-12T15:26:00;9.32;78.64
67054;SHT31;53960;51.826;5.850;2023-04-12T15:28:26;9.22;79.33
67054;SHT31;53960;51.826;5.850;2023-04-12T15:30:54;9.18;80.62
67054;SHT31;53960;51.826;5.850;2023-04-12T15:33:20;9.19;81.09
67054;SHT31;53960;51.826;5.850;2023-04-12T15:35:47;9.35;80.17
67054;SHT31;53960;51.826;5.850;2023-04-12T15:38:13;9.39;81.19
67054;SHT31;53960;51.826;5.850;2023-04-12T15:40:39;9.44;80.50
67054;SHT31;53960;51.826;5.850;2023-04-12T15:43:05;9.51;80.36
67054;SHT31;53960;51.826;5.850;2023-04-12T15:45:30;9.56;80.79
67054;SHT31;53960;51.826;5.850;2023-04-12T15:47:55;9.57;81.27
67054;SHT31;53960;51.826;5.850;2023-04-12T15:50:23;9.47;81.73
67054;SHT31;53960;51.826;5.850;2023-04-12T15:52:48;9.56;81.77
67054;SHT31;53960;51.826;5.850;2023-04-12T15:55:14;9.56;81.79
67054;SHT31;53960;51.826;5.850;2023-04-12T15:57:42;9.56;81.88
67054;SHT31;53960;51.826;5.850;2023-04-12T16:00:08;9.50;81.66